Time;durP1;ratioP1;P1;durP2;ratioP2;P2;SDS_P1;SDS_P2;PMS_P1;PMS_P2;Temp;Humidity;BMP_temperature;BMP_pressure;BME280_temperature;BME280_humidity;BME280_pressure;Samples;Min_cycle;Max_cycle;Signal;HPM_P1;HPM_P2
2022/10/04 00:00:26;;;;;;;;;;;;;;;11.29;100.00;102476.94;5049846;28;20432;-69
2022/10/04 00:03:05;;;;;;;;;;;;;;;11.25;99.60;102483.78;5032352;28;19928;-71
2022/10/04 00:05:30;;;;;;;;;;;;;;;11.21;99.78;102477.75;5049656;28;19917;-70
2022/10/04 00:07:57;;;;;;;;;;;;;;;11.13;99.91;102465.88;5049861;28;19924;-70
2022/10/04 00:10:29;;;;;;;;;;;;;;;11.09;99.66;102478.19;5050269;28;19917;-70
2022/10/04 00:12:57;;;;;;;;;;;;;;;11.07;100.00;102472.00;5050793;28;19920;-70
2022/10/04 00:15:27;;;;;;;;;;;;;;;11.01;99.93;102462.56;5050024;28;20346;-70
2022/10/04 00:18:11;;;;;;;;;;;;;;;11.05;100.00;102469.41;5039711;28;20302;-70
2022/10/04 00:20:52;;;;;;;;;;;;;;;11.02;100.00;102458.78;5049130;28;19920;-69
2022/10/04 00:23:23;;;;;;;;;;;;;;;10.96;100.00;102462.19;5050743;28;19916;-71
2022/10/04 00:25:54;;;;;;;;;;;;;;;10.91;100.00;102461.81;5032519;28;19921;-71
2022/10/04 00:28:19;;;;;;;;;;;;;;;10.89;100.00;102463.81;5050671;28;19916;-70
2022/10/04 00:31:04;;;;;;;;;;;;;;;10.83;100.00;102455.41;5049624;28;20395;-70
2022/10/04 00:33:48;;;;;;;;;;;;;;;10.78;100.00;102457.75;5048788;28;19943;-70
2022/10/04 00:36:25;;;;;;;;;;;;;;;10.76;99.97;102457.03;5050277;28;19975;-69
2022/10/04 00:39:03;;;;;;;;;;;;;;;10.77;100.00;102450.53;5050527;28;19965;-69
2022/10/04 00:41:33;;;;;;;;;;;;;;;10.76;100.00;102440.59;5050664;28;19920;-71
2022/10/04 00:43:58;;;;;;;;;;;;;;;10.71;100.00;102448.41;5049671;28;20007;-71
2022/10/04 00:46:27;;;;;;;;;;;;;;;10.63;100.00;102451.94;5017846;28;20007;-71
2022/10/04 00:48:55;;;;;;;;;;;;;;;10.59;99.87;102450.56;5049554;28;20368;-71
2022/10/04 00:51:20;;;;;;;;;;;;;;;10.57;100.00;102449.84;5049992;28;20299;-71
2022/10/04 00:53:52;;;;;;;;;;;;;;;10.53;100.00;102445.72;5050131;28;19924;-71
2022/10/04 00:56:23;;;;;;;;;;;;;;;10.53;100.00;102455.81;5049406;28;19917;-71
2022/10/04 00:59:04;;;;;;;;;;;;;;;10.47;100.00;102449.06;5030777;28;19924;-71
2022/10/04 01:01:32;;;;;;;;;;;;;;;10.45;100.00;102442.03;5027386;28;19944;-71
2022/10/04 01:04:01;;;;;;;;;;;;;;;10.41;100.00;102446.13;5049862;28;20005;-71
2022/10/04 01:06:26;;;;;;;;;;;;;;;10.36;100.00;102443.84;5049267;28;19917;-71
2022/10/04 01:08:53;;;;;;;;;;;;;;;10.34;100.00;102436.78;5049920;28;20390;-72
2022/10/04 01:11:25;;;;;;;;;;;;;;;10.31;100.00;102429.75;5050869;28;19917;-72
2022/10/04 01:14:00;;;;;;;;;;;;;;;10.28;100.00;102442.91;5044879;28;19924;-72
2022/10/04 01:16:27;;;;;;;;;;;;;;;10.23;100.00;102443.38;5049829;28;19924;-71
2022/10/04 01:18:52;;;;;;;;;;;;;;;10.24;100.00;102439.63;5047277;28;20372;-71
2022/10/04 01:21:17;;;;;;;;;;;;;;;10.23;100.00;102439.75;5037903;28;19931;-72
2022/10/04 01:23:51;;;;;;;;;;;;;;;10.23;100.00;102428.81;5048964;28;20372;-71
2022/10/04 01:26:28;;;;;;;;;;;;;;;10.21;100.00;102431.72;5032281;28;19925;-71
2022/10/04 01:29:11;;;;;;;;;;;;;;;10.17;100.00;102415.75;5048980;28;19925;-71
2022/10/04 01:31:41;;;;;;;;;;;;;;;10.16;100.00;102414.91;5048853;28;20000;-71
2022/10/04 01:34:07;;;;;;;;;;;;;;;10.12;100.00;102412.63;5030270;28;20446;-71
2022/10/04 01:36:33;;;;;;;;;;;;;;;10.07;100.00;102401.28;5049452;28;19916;-71
2022/10/04 01:38:58;;;;;;;;;;;;;;;10.05;100.00;102395.09;5030213;28;20351;-71
2022/10/04 01:41:28;;;;;;;;;;;;;;;10.00;100.00;102390.06;5049682;28;20276;-72
2022/10/04 01:43:56;;;;;;;;;;;;;;;9.93;100.00;102379.91;5048042;28;20050;-71
2022/10/04 01:46:23;;;;;;;;;;;;;;;9.92;100.00;102381.75;5049409;28;19917;-71
2022/10/04 01:48:50;;;;;;;;;;;;;;;9.90;100.00;102380.19;5048673;28;19920;-72
2022/10/04 01:51:24;;;;;;;;;;;;;;;9.87;100.00;102381.38;5048999;28;19948;-72
2022/10/04 01:53:55;;;;;;;;;;;;;;;9.81;100.00;102376.53;5048760;28;19952;-71
2022/10/04 01:56:22;;;;;;;;;;;;;;;9.73;100.00;102373.72;5049620;28;19916;-71
2022/10/04 01:58:49;;;;;;;;;;;;;;;9.70;100.00;102362.19;5030530;28;20303;-72
2022/10/04 02:01:19;;;;;;;;;;;;;;;9.72;100.00;102357.44;5044218;28;19916;-72
2022/10/04 02:03:51;;;;;;;;;;;;;;;9.70;100.00;102352.13;5049394;28;19921;-72
2022/10/04 02:06:17;;;;;;;;;;;;;;;9.77;100.00;102342.25;5049220;28;19925;-72
2022/10/04 02:08:48;;;;;;;;;;;;;;;9.73;100.00;102340.00;5048684;28;20376;-71
2022/10/04 02:11:16;;;;;;;;;;;;;;;9.81;100.00;102332.72;5049082;28;20002;-72
2022/10/04 02:13:42;;;;;;;;;;;;;;;9.80;100.00;102332.88;5047649;28;20011;-72
2022/10/04 02:16:09;;;;;;;;;;;;;;;9.84;100.00;102328.81;5048822;28;19923;-71
2022/10/04 02:18:36;;;;;;;;;;;;;;;9.93;100.00;102320.53;5048965;28;19916;-71
2022/10/04 02:21:03;;;;;;;;;;;;;;;9.88;100.00;102306.44;5049663;28;20402;-71
2022/10/04 02:23:29;;;;;;;;;;;;;;;9.86;100.00;102308.50;5046977;28;19963;-71
2022/10/04 02:25:54;;;;;;;;;;;;;;;9.92;100.00;102307.88;5048702;28;20433;-73
2022/10/04 02:28:19;;;;;;;;;;;;;;;9.88;100.00;102311.09;5049064;28;20355;-71
2022/10/04 02:32:56;;;;;;;;;;;;;;;9.87;100.00;102309.38;5048338;28;20284;-71
2022/10/04 02:33:37;;;;;;;;;;;;;;;9.75;100.00;102306.00;5047490;28;20054;-71
2022/10/04 02:36:02;;;;;;;;;;;;;;;9.79;100.00;102295.59;5030571;28;20058;-71
2022/10/04 02:38:32;;;;;;;;;;;;;;;9.72;100.00;102291.78;5049049;28;20304;-71
2022/10/04 02:41:00;;;;;;;;;;;;;;;9.64;100.00;102286.22;5049528;28;19923;-71
2022/10/04 02:43:42;;;;;;;;;;;;;;;9.64;100.00;102286.22;5048008;28;19916;-71
2022/10/04 02:46:17;;;;;;;;;;;;;;;9.68;100.00;102274.81;5052642;28;20342;-71
2022/10/04 02:48:42;;;;;;;;;;;;;;;9.77;100.00;102276.59;5051629;28;19921;-72
2022/10/04 02:51:16;;;;;;;;;;;;;;;9.77;100.00;102262.91;5052844;28;19939;-70
2022/10/04 02:53:42;;;;;;;;;;;;;;;9.79;100.00;102274.56;5052174;28;20372;-71
2022/10/04 02:56:09;;;;;;;;;;;;;;;9.82;100.00;102265.19;5050596;28;19924;-72
2022/10/04 02:58:37;;;;;;;;;;;;;;;9.85;100.00;102271.22;5052148;28;20249;-71
2022/10/04 03:01:02;;;;;;;;;;;;;;;9.80;100.00;102262.59;5050694;28;19916;-71
2022/10/04 03:03:33;;;;;;;;;;;;;;;9.77;100.00;102259.34;5051317;28;20361;-71
2022/10/04 03:06:01;;;;;;;;;;;;;;;9.77;100.00;102251.97;5052452;28;19916;-71
2022/10/04 03:08:27;;;;;;;;;;;;;;;9.78;100.00;102253.69;5050919;28;19929;-71
2022/10/04 03:10:53;;;;;;;;;;;;;;;9.80;100.00;102242.56;5044631;28;19920;-71
2022/10/04 03:13:19;;;;;;;;;;;;;;;9.76;100.00;102235.72;5052227;28;19916;-71
2022/10/04 03:15:46;;;;;;;;;;;;;;;9.78;100.00;102231.78;5052094;28;19917;-71
2022/10/04 03:18:12;;;;;;;;;;;;;;;9.86;100.00;102233.72;5050467;28;20035;-71
2022/10/04 03:20:38;;;;;;;;;;;;;;;9.88;100.00;102237.19;5041529;28;19917;-71
2022/10/04 03:23:04;;;;;;;;;;;;;;;9.80;100.00;102227.03;5050664;28;19916;-71
2022/10/04 03:25:38;;;;;;;;;;;;;;;9.69;100.00;102232.75;5048146;28;19917;-71
2022/10/04 03:28:04;;;;;;;;;;;;;;;9.67;100.00;102242.13;5050039;28;19917;-71
2022/10/04 03:30:30;;;;;;;;;;;;;;;9.63;100.00;102246.19;5049597;28;19927;-71
2022/10/04 03:32:56;;;;;;;;;;;;;;;9.53;100.00;102239.94;5051434;28;19917;-71
2022/10/04 03:35:30;;;;;;;;;;;;;;;9.50;100.00;102235.66;5052281;28;19928;-71
2022/10/04 03:37:57;;;;;;;;;;;;;;;9.50;100.00;102232.91;5050630;28;19926;-71
2022/10/04 03:40:26;;;;;;;;;;;;;;;9.37;100.00;102237.03;5046848;28;19963;-71
2022/10/04 03:42:52;;;;;;;;;;;;;;;9.29;100.00;102234.25;5051227;28;20288;-72
2022/10/04 03:45:18;;;;;;;;;;;;;;;9.27;100.00;102230.78;5050932;28;19923;-71
2022/10/04 03:47:45;;;;;;;;;;;;;;;9.26;100.00;102229.06;5051344;28;19956;-71
2022/10/04 03:50:14;;;;;;;;;;;;;;;9.20;100.00;102221.50;5049876;28;19924;-71
2022/10/04 03:52:42;;;;;;;;;;;;;;;9.27;100.00;102218.00;5050180;28;19912;-71
2022/10/04 03:55:10;;;;;;;;;;;;;;;9.29;100.00;102212.38;5049846;28;19967;-72
2022/10/04 03:57:36;;;;;;;;;;;;;;;9.32;100.00;102212.91;5032810;28;19924;-70
2022/10/04 04:00:03;;;;;;;;;;;;;;;9.34;100.00;102201.84;5033845;28;20005;-70
2022/10/04 04:02:31;;;;;;;;;;;;;;;9.42;100.00;102196.41;5049236;28;20363;-70
2022/10/04 04:05:04;;;;;;;;;;;;;;;9.40;100.00;102201.19;5050302;28;19996;-70
2022/10/04 04:07:32;;;;;;;;;;;;;;;9.44;100.00;102202.63;5051460;28;19916;-70
2022/10/04 04:09:58;;;;;;;;;;;;;;;9.41;100.00;102209.25;5050755;28;19917;-69
2022/10/04 04:12:26;;;;;;;;;;;;;;;9.34;100.00;102212.78;5051307;28;20078;-70
2022/10/04 04:14:52;;;;;;;;;;;;;;;9.24;100.00;102215.56;5049859;28;19979;-70
2022/10/04 04:17:17;;;;;;;;;;;;;;;9.27;100.00;102211.66;5051136;28;19920;-71
2022/10/04 04:19:43;;;;;;;;;;;;;;;9.25;100.00;102219.16;5049636;28;20350;-70
2022/10/04 04:22:14;;;;;;;;;;;;;;;9.33;100.00;102213.75;5050408;28;20011;-70
2022/10/04 04:24:40;;;;;;;;;;;;;;;9.33;100.00;102205.56;5049990;28;19917;-70
2022/10/04 04:27:06;;;;;;;;;;;;;;;9.34;100.00;102199.09;5050671;28;20376;-72
2022/10/04 04:29:35;;;;;;;;;;;;;;;9.38;100.00;102197.75;5049102;28;19925;-72
2022/10/04 04:32:04;;;;;;;;;;;;;;;9.36;100.00;102192.47;5049152;28;19920;-72
2022/10/04 04:34:34;;;;;;;;;;;;;;;9.29;100.00;102198.69;5030269;28;19921;-71
2022/10/04 04:37:00;;;;;;;;;;;;;;;9.27;100.00;102206.19;5032054;28;19917;-71
2022/10/04 04:42:27;;;;;;;;;;;;;;;9.20;100.00;102207.81;5038046;28;19986;-71
2022/10/04 04:45:00;;;;;;;;;;;;;;;9.04;100.00;102207.66;5051148;28;20365;-71
2022/10/04 04:47:27;;;;;;;;;;;;;;;9.07;100.00;102210.09;5050037;28;20394;-71
2022/10/04 04:49:54;;;;;;;;;;;;;;;9.08;100.00;102209.91;5049001;28;19925;-71
2022/10/04 04:52:22;;;;;;;;;;;;;;;9.09;100.00;102202.59;5049464;28;19917;-71
2022/10/04 04:54:48;;;;;;;;;;;;;;;9.10;100.00;102210.63;5034946;28;19917;-70
2022/10/04 04:57:15;;;;;;;;;;;;;;;9.16;100.00;102203.69;5047602;28;19940;-70
2022/10/04 04:59:44;;;;;;;;;;;;;;;9.24;100.00;102206.50;5050824;28;20518;-70
2022/10/04 05:02:27;;;;;;;;;;;;;;;9.28;100.00;102213.41;5048248;28;19917;-71
2022/10/04 05:05:11;;;;;;;;;;;;;;;9.28;100.00;102210.66;5050163;28;20344;-71
2022/10/04 05:07:36;;;;;;;;;;;;;;;9.23;100.00;102213.00;5017293;28;19920;-70
2022/10/04 05:10:18;;;;;;;;;;;;;;;9.22;100.00;102214.88;5050343;28;19923;-71
2022/10/04 05:12:44;;;;;;;;;;;;;;;9.25;100.00;102210.97;5050616;28;19924;-70
2022/10/04 05:15:09;;;;;;;;;;;;;;;9.22;100.00;102212.13;5049803;28;20332;-71
2022/10/04 05:17:35;;;;;;;;;;;;;;;9.30;100.00;102217.66;5048386;28;19920;-70
2022/10/04 05:20:01;;;;;;;;;;;;;;;9.33;100.00;102211.91;5031555;28;20015;-70
2022/10/04 05:22:27;;;;;;;;;;;;;;;9.34;100.00;102208.13;5048575;28;20035;-71
2022/10/04 05:24:59;;;;;;;;;;;;;;;9.36;100.00;102211.59;5050363;28;19939;-71
2022/10/04 05:27:43;;;;;;;;;;;;;;;9.33;100.00;102216.50;5048979;28;20356;-70
2022/10/04 05:30:15;;;;;;;;;;;;;;;9.39;100.00;102218.63;5050434;28;19959;-71
2022/10/04 05:32:56;;;;;;;;;;;;;;;9.37;100.00;102228.84;5050597;28;19916;-70
2022/10/04 05:35:22;;;;;;;;;;;;;;;9.38;100.00;102222.34;5049785;28;20019;-71
2022/10/04 05:37:53;;;;;;;;;;;;;;;9.43;100.00;102222.75;5049814;28;20015;-71
2022/10/04 05:40:35;;;;;;;;;;;;;;;9.39;100.00;102224.09;5030319;28;19924;-71
2022/10/04 05:43:01;;;;;;;;;;;;;;;9.44;100.00;102219.03;5046297;28;20462;-70
2022/10/04 05:45:28;;;;;;;;;;;;;;;9.36;100.00;102217.06;5050271;28;19940;-72
2022/10/04 05:47:59;;;;;;;;;;;;;;;9.37;100.00;102212.44;5050451;28;20011;-70
2022/10/04 05:50:40;;;;;;;;;;;;;;;9.31;100.00;102202.13;5050478;28;20352;-71
2022/10/04 05:53:15;;;;;;;;;;;;;;;9.32;100.00;102199.25;5050245;28;19920;-70
2022/10/04 05:56:01;;;;;;;;;;;;;;;9.27;100.00;102206.19;5049417;28;20375;-71
2022/10/04 05:58:41;;;;;;;;;;;;;;;9.32;100.00;102198.38;5031723;28;19923;-71
2022/10/04 06:01:09;;;;;;;;;;;;;;;9.41;100.00;102198.31;5050119;28;19920;-70
2022/10/04 06:03:41;;;;;;;;;;;;;;;9.36;100.00;102194.31;5050374;28;20372;-70
2022/10/04 06:06:06;;;;;;;;;;;;;;;9.38;100.00;102186.81;5048605;28;19920;-70
2022/10/04 06:08:40;;;;;;;;;;;;;;;9.34;100.00;102193.63;5049605;28;19917;-70
2022/10/04 06:11:08;;;;;;;;;;;;;;;9.33;100.00;102194.63;5032140;28;20007;-70
2022/10/04 06:13:52;;;;;;;;;;;;;;;9.37;100.00;102191.44;5049536;28;19923;-71
2022/10/04 06:16:36;;;;;;;;;;;;;;;9.34;100.00;102199.09;5049317;28;20392;-71
2022/10/04 06:19:04;;;;;;;;;;;;;;;9.32;100.00;102198.38;5050576;28;19924;-71
2022/10/04 06:21:40;;;;;;;;;;;;;;;9.34;100.00;102199.09;5053536;28;19912;-70
2022/10/04 06:24:20;;;;;;;;;;;;;;;9.35;100.00;102187.97;5034512;28;20375;-70
2022/10/04 06:26:52;;;;;;;;;;;;;;;9.38;100.00;102187.69;5035416;28;19940;-70
2022/10/04 06:29:22;;;;;;;;;;;;;;;9.38;100.00;102186.81;5035630;28;19916;-70
2022/10/04 06:31:59;;;;;;;;;;;;;;;9.36;100.00;102183.38;5053614;28;19924;-70
2022/10/04 06:34:43;;;;;;;;;;;;;;;9.38;100.00;102181.34;5051379;28;19924;-70
2022/10/04 06:37:08;;;;;;;;;;;;;;;9.32;100.00;102177.38;5051934;28;19970;-70
2022/10/04 06:39:52;;;;;;;;;;;;;;;9.34;100.00;102177.22;5050544;28;20050;-71
2022/10/04 06:42:20;;;;;;;;;;;;;;;9.34;100.00;102183.53;5051182;28;19920;-71
2022/10/04 06:44:59;;;;;;;;;;;;;;;9.36;100.00;102175.19;5051623;28;20007;-70
2022/10/04 06:47:41;;;;;;;;;;;;;;;9.35;100.00;102171.56;5031940;28;19967;-70
2022/10/04 06:50:32;;;;;;;;;;;;;;;9.39;100.00;102172.16;5043414;28;19924;-70
2022/10/04 06:53:15;;;;;;;;;;;;;;;9.35;100.00;102178.94;5034868;28;20039;-70
2022/10/04 06:56:06;;;;;;;;;;;;;;;9.36;100.00;102177.91;5041917;28;19917;-70
2022/10/04 06:58:46;;;;;;;;;;;;;;;9.53;100.00;102179.78;5033026;28;19937;-71
2022/10/04 07:01:22;;;;;;;;;;;;;;;9.55;100.00;102183.22;5032793;28;19917;-70
2022/10/04 07:04:06;;;;;;;;;;;;;;;9.59;100.00;102187.34;5033013;28;20430;-71
2022/10/04 07:06:41;;;;;;;;;;;;;;;9.69;100.00;102185.38;5044474;28;19925;-71
2022/10/04 07:09:14;;;;;;;;;;;;;;;9.84;100.00;102183.78;5049057;28;20550;-70
2022/10/04 07:11:50;;;;;;;;;;;;;;;9.87;100.00;102178.00;5049012;28;19988;-70
2022/10/04 07:14:20;;;;;;;;;;;;;;;10.01;100.00;102171.94;5048246;28;20380;-70
2022/10/04 07:16:53;;;;;;;;;;;;;;;10.07;100.00;102168.56;5051454;28;19963;-71
2022/10/04 07:19:18;;;;;;;;;;;;;;;10.15;100.00;102169.47;5051500;28;20041;-70
2022/10/04 07:21:52;;;;;;;;;;;;;;;10.19;100.00;102168.13;5048101;28;20086;-71
2022/10/04 07:24:23;;;;;;;;;;;;;;;10.29;100.00;102168.88;5049043;28;20023;-70
2022/10/04 07:26:49;;;;;;;;;;;;;;;10.43;99.93;102165.53;5050715;28;19920;-71
2022/10/04 07:29:20;;;;;;;;;;;;;;;10.46;99.92;102158.88;5032534;28;19967;-70
2022/10/04 07:32:12;;;;;;;;;;;;;;;10.54;100.00;102162.50;5049654;28;20409;-70
2022/10/04 07:34:56;;;;;;;;;;;;;;;10.64;99.99;102171.47;5033606;28;19962;-70
2022/10/04 07:37:22;;;;;;;;;;;;;;;10.85;97.66;102165.53;5052654;28;20019;-71
2022/10/04 07:40:07;;;;;;;;;;;;;;;10.96;97.85;102171.56;5046379;28;19956;-71
2022/10/04 07:42:45;;;;;;;;;;;;;;;11.08;97.88;102177.56;5048491;28;19966;-70
2022/10/04 07:45:10;;;;;;;;;;;;;;;11.28;96.88;102173.50;5048187;28;19925;-70
2022/10/04 07:47:36;;;;;;;;;;;;;;;11.45;95.28;102183.44;5049262;28;19924;-70
2022/10/04 07:50:17;;;;;;;;;;;;;;;11.46;95.41;102174.19;5030434;28;19968;-71
2022/10/04 07:53:04;;;;;;;;;;;;;;;11.60;95.21;102174.41;5030068;28;19933;-71
2022/10/04 07:55:36;;;;;;;;;;;;;;;11.69;94.42;102167.03;5025753;28;19955;-70
2022/10/04 07:58:19;;;;;;;;;;;;;;;11.72;94.61;102178.53;5047300;28;20398;-71
2022/10/04 08:00:48;;;;;;;;;;;;;;;11.87;94.39;102179.56;5027963;28;20031;-72
2022/10/04 08:03:19;;;;;;;;;;;;;;;11.94;94.87;102183.31;5047631;28;20379;-71
2022/10/04 08:05:49;;;;;;;;;;;;;;;12.08;94.56;102177.13;5043157;28;19917;-71
2022/10/04 08:08:20;;;;;;;;;;;;;;;12.14;93.22;102184.66;5046914;28;19920;-72
2022/10/04 08:10:55;;;;;;;;;;;;;;;12.26;93.09;102185.13;5042836;28;19925;-71
2022/10/04 08:13:29;;;;;;;;;;;;;;;12.21;93.03;102185.66;5048798;28;19924;-71
2022/10/04 08:15:57;;;;;;;;;;;;;;;12.41;92.92;102180.63;5044392;28;20010;-71
2022/10/04 08:18:47;;;;;;;;;;;;;;;12.45;92.45;102173.75;5046994;28;19923;-70
2022/10/04 08:21:15;;;;;;;;;;;;;;;12.55;92.75;102171.66;5041992;28;19925;-71
2022/10/04 08:23:40;;;;;;;;;;;;;;;12.60;91.84;102178.31;5046946;28;19924;-71
2022/10/04 08:26:13;;;;;;;;;;;;;;;12.62;91.88;102180.91;5041469;28;19920;-70
2022/10/04 08:31:50;;;;;;;;;;;;;;;12.54;92.31;102183.69;5044971;28;20023;-71
2022/10/04 08:34:30;;;;;;;;;;;;;;;12.49;92.06;102177.88;5044082;28;19916;-71
2022/10/04 08:37:02;;;;;;;;;;;;;;;12.50;92.06;102179.56;5048461;28;20017;-71
2022/10/04 08:39:46;;;;;;;;;;;;;;;12.73;92.00;102180.50;5029963;28;19948;-70
2022/10/04 08:42:17;;;;;;;;;;;;;;;12.93;91.88;102170.78;5048383;28;20015;-71
2022/10/04 08:45:19;;;;;;;;;;;;;;;13.12;90.71;102173.13;5042624;28;19917;-71
2022/10/04 08:47:44;;;;;;;;;;;;;;;13.40;90.16;102174.31;4986818;28;20425;-71
2022/10/04 08:50:28;;;;;;;;;;;;;;;13.57;88.37;102181.41;5032861;28;19933;-71
2022/10/04 08:53:02;;;;;;;;;;;;;;;13.72;87.77;102176.81;5041971;28;19985;-71
2022/10/04 08:55:38;;;;;;;;;;;;;;;13.88;86.47;102168.38;5045442;28;20930;-70
2022/10/04 08:58:09;;;;;;;;;;;;;;;13.94;86.39;102176.75;5045952;28;20305;-70
2022/10/04 09:00:47;;;;;;;;;;;;;;;13.96;86.79;102174.69;5046663;28;19966;-71
2022/10/04 09:03:12;;;;;;;;;;;;;;;14.10;85.53;102165.56;5045824;28;19923;-71
2022/10/04 09:05:38;;;;;;;;;;;;;;;14.06;85.04;102172.50;5046568;28;19917;-70
2022/10/04 09:08:21;;;;;;;;;;;;;;;13.87;85.54;102170.28;5046060;28;19916;-71
2022/10/04 09:11:05;;;;;;;;;;;;;;;14.01;86.09;102174.09;5045317;28;19929;-70
2022/10/04 09:13:42;;;;;;;;;;;;;;;14.28;84.85;102173.50;5046964;28;19986;-71
2022/10/04 09:16:26;;;;;;;;;;;;;;;14.50;84.21;102178.94;5027330;28;20351;-70
2022/10/04 09:19:11;;;;;;;;;;;;;;;14.48;83.19;102172.78;5045708;28;20337;-71
2022/10/04 09:22:03;;;;;;;;;;;;;;;14.55;83.60;102178.38;5035264;28;20360;-70
2022/10/04 09:24:52;;;;;;;;;;;;;;;14.67;83.76;102174.94;5041956;28;20284;-70
2022/10/04 09:27:35;;;;;;;;;;;;;;;14.78;81.65;102168.09;5040510;28;19927;-70
2022/10/04 09:30:03;;;;;;;;;;;;;;;14.90;80.71;102177.56;5040439;28;19944;-70
2022/10/04 09:32:28;;;;;;;;;;;;;;;14.86;80.35;102173.50;5044927;28;20352;-70
2022/10/04 09:35:05;;;;;;;;;;;;;;;14.99;80.34;102176.44;5042274;28;19921;-71
2022/10/04 09:37:41;;;;;;;;;;;;;;;14.97;79.47;102167.47;5034634;28;20425;-71
2022/10/04 09:40:29;;;;;;;;;;;;;;;15.01;79.53;102152.25;5033939;28;19931;-70
2022/10/04 09:43:07;;;;;;;;;;;;;;;15.18;79.49;102153.72;5039850;28;20138;-70
2022/10/04 09:45:49;;;;;;;;;;;;;;;15.50;79.69;102143.06;5044699;28;19925;-70
2022/10/04 09:48:24;;;;;;;;;;;;;;;15.56;78.10;102130.34;5026964;28;19958;-70
2022/10/04 09:50:55;;;;;;;;;;;;;;;15.82;77.83;102127.81;5042592;28;19925;-71
2022/10/04 09:53:23;;;;;;;;;;;;;;;16.09;76.85;102133.34;5045829;28;19927;-70
2022/10/04 09:56:08;;;;;;;;;;;;;;;16.42;75.77;102128.06;5023616;28;19964;-71
2022/10/04 09:58:33;;;;;;;;;;;;;;;16.59;74.93;102130.28;5051252;28;19921;-71
2022/10/04 10:01:01;;;;;;;;;;;;;;;16.42;75.62;102125.28;5041159;28;19927;-71
2022/10/04 10:03:32;;;;;;;;;;;;;;;16.00;75.47;102122.66;5049484;28;20395;-70
2022/10/04 10:05:57;;;;;;;;;;;;;;;15.95;76.97;102119.66;5046620;28;20477;-71
2022/10/04 10:08:28;;;;;;;;;;;;;;;16.20;76.28;102129.16;5051148;28;20017;-70
2022/10/04 10:13:55;;;;;;;;;;;;;;;16.51;74.43;102138.78;5051127;28;19931;-70
2022/10/04 10:16:21;;;;;;;;;;;;;;;16.82;73.47;102143.81;5051629;28;19925;-70
2022/10/04 10:18:49;;;;;;;;;;;;;;;17.04;72.96;102140.72;5051519;28;20386;-71
2022/10/04 10:21:14;;;;;;;;;;;;;;;17.16;72.05;102140.94;5031759;28;20429;-71
2022/10/04 10:23:59;;;;;;;;;;;;;;;17.05;72.65;102141.53;5047402;28;19925;-70
2022/10/04 10:26:24;;;;;;;;;;;;;;;17.17;72.81;102145.41;5047008;28;20328;-71
2022/10/04 10:28:56;;;;;;;;;;;;;;;17.25;71.63;102145.22;5050094;28;19982;-70
2022/10/04 10:31:22;;;;;;;;;;;;;;;17.03;70.06;102133.44;5031097;28;19921;-70
2022/10/04 10:34:02;;;;;;;;;;;;;;;17.25;70.97;102132.25;5050739;28;20442;-71
2022/10/04 10:36:27;;;;;;;;;;;;;;;17.19;70.44;102127.53;5046350;28;20186;-71
2022/10/04 10:39:11;;;;;;;;;;;;;;;17.05;71.06;102127.69;5051460;28;20295;-70
2022/10/04 10:41:39;;;;;;;;;;;;;;;16.91;71.42;102126.81;5047419;28;19917;-71
2022/10/04 10:44:07;;;;;;;;;;;;;;;17.00;71.86;102117.25;5049930;28;19990;-70
2022/10/04 10:46:52;;;;;;;;;;;;;;;17.18;72.06;102113.91;5047271;28;19917;-70
2022/10/04 10:49:23;;;;;;;;;;;;;;;17.05;71.06;102116.63;5032398;28;19920;-71
2022/10/04 10:51:48;;;;;;;;;;;;;;;17.07;71.99;102117.28;5048330;28;19974;-70
2022/10/04 10:54:29;;;;;;;;;;;;;;;17.18;71.50;102111.97;5040165;28;20163;-70
2022/10/04 10:56:58;;;;;;;;;;;;;;;17.51;71.02;102120.38;5049162;28;20062;-71
2022/10/04 10:59:33;;;;;;;;;;;;;;;17.64;69.11;102112.06;5049214;28;20017;-71
2022/10/04 11:02:24;;;;;;;;;;;;;;;17.63;69.00;102116.78;5043147;28;19962;-71
2022/10/04 11:05:08;;;;;;;;;;;;;;;18.09;68.90;102116.75;5045781;28;19917;-71
2022/10/04 11:07:42;;;;;;;;;;;;;;;18.35;66.96;102119.53;5047308;28;19916;-71
2022/10/04 11:10:25;;;;;;;;;;;;;;;17.91;66.52;102131.28;5030007;28;19921;-71
2022/10/04 11:12:53;;;;;;;;;;;;;;;17.92;65.28;102116.34;5048394;28;19927;-71
2022/10/04 11:15:37;;;;;;;;;;;;;;;17.85;68.34;102120.19;5043912;28;19924;-71
2022/10/04 11:18:02;;;;;;;;;;;;;;;17.68;67.14;102117.00;5048739;28;19916;-70
2022/10/04 11:20:31;;;;;;;;;;;;;;;18.25;66.28;102110.75;5043638;28;19923;-70
2022/10/04 11:23:15;;;;;;;;;;;;;;;18.30;64.99;102122.06;5045368;28;20008;-71
2022/10/04 11:25:41;;;;;;;;;;;;;;;18.14;63.05;102120.56;5045645;28;20478;-71
2022/10/04 11:28:25;;;;;;;;;;;;;;;18.05;65.48;102118.25;5045004;28;19921;-70
2022/10/04 11:30:50;;;;;;;;;;;;;;;17.88;65.49;102122.53;5046403;28;19927;-71
2022/10/04 11:33:24;;;;;;;;;;;;;;;17.72;65.21;102125.75;5048987;28;19921;-70
2022/10/04 11:36:07;;;;;;;;;;;;;;;17.76;65.93;102113.16;5047121;28;20007;-70
2022/10/04 11:38:55;;;;;;;;;;;;;;;17.90;65.90;102104.63;5034956;28;19916;-70
2022/10/04 11:41:23;;;;;;;;;;;;;;;18.20;65.55;102111.38;5041683;28;19924;-70
2022/10/04 11:44:13;;;;;;;;;;;;;;;18.22;65.20;102109.28;5049291;28;19956;-70
2022/10/04 11:47:08;;;;;;;;;;;;;;;18.41;65.79;102104.78;5048510;28;20153;-71
2022/10/04 11:49:46;;;;;;;;;;;;;;;18.72;64.83;102104.88;5034522;28;19928;-71
2022/10/04 11:52:29;;;;;;;;;;;;;;;18.81;64.23;102104.41;5044176;28;19924;-70
2022/10/04 11:55:05;;;;;;;;;;;;;;;18.52;64.56;102104.94;5047218;28;20010;-71
2022/10/04 11:57:38;;;;;;;;;;;;;;;18.23;65.57;102107.34;5048401;28;19916;-70
2022/10/04 12:00:16;;;;;;;;;;;;;;;18.27;65.87;102103.06;5046152;28;19987;-71
2022/10/04 12:02:52;;;;;;;;;;;;;;;18.26;65.79;102091.09;5038887;28;19917;-71
2022/10/04 12:05:40;;;;;;;;;;;;;;;18.58;65.91;102092.13;5044682;28;19955;-72
2022/10/04 12:08:17;;;;;;;;;;;;;;;18.74;65.08;102095.25;5015666;28;19916;-71
2022/10/04 12:10:47;;;;;;;;;;;;;;;19.05;63.49;102084.19;5044701;28;20357;-71
2022/10/04 12:13:18;;;;;;;;;;;;;;;18.95;63.53;102089.38;5046674;28;19927;-70
2022/10/04 12:15:59;;;;;;;;;;;;;;;19.28;63.96;102072.53;5047766;28;20478;-70
2022/10/04 12:18:45;;;;;;;;;;;;;;;19.53;63.19;102081.78;5047917;28;19917;-71
2022/10/04 12:21:11;;;;;;;;;;;;;;;19.30;61.86;102084.28;5044643;28;20545;-70
2022/10/04 12:23:42;;;;;;;;;;;;;;;19.17;62.60;102087.13;5039394;28;19959;-70
2022/10/04 12:26:20;;;;;;;;;;;;;;;19.12;63.33;102081.38;5022508;28;19936;-70
2022/10/04 12:29:03;;;;;;;;;;;;;;;19.23;63.64;102073.22;5040141;28;20362;-71
2022/10/04 12:31:34;;;;;;;;;;;;;;;19.36;62.88;102072.28;5039205;28;19917;-71
2022/10/04 12:34:13;;;;;;;;;;;;;;;19.54;62.24;102055.66;5027017;28;19916;-71
2022/10/04 12:36:57;;;;;;;;;;;;;;;19.45;61.90;102062.56;5045484;28;19927;-71
2022/10/04 12:39:41;;;;;;;;;;;;;;;19.65;62.03;102058.56;5046105;28;19920;-71
2022/10/04 12:42:25;;;;;;;;;;;;;;;19.49;61.88;102058.28;5027166;28;19920;-71
2022/10/04 12:45:05;;;;;;;;;;;;;;;19.33;61.45;102058.84;5046498;28;20307;-71
2022/10/04 12:47:38;;;;;;;;;;;;;;;19.40;61.91;102062.41;5046696;28;19916;-71
2022/10/04 12:50:16;;;;;;;;;;;;;;;19.43;62.69;102050.84;5042284;28;19974;-71
2022/10/04 12:53:04;;;;;;;;;;;;;;;19.49;61.97;102042.47;5041265;28;19928;-71
2022/10/04 12:55:42;;;;;;;;;;;;;;;19.62;62.92;102025.66;5042074;28;19924;-71
2022/10/04 12:58:20;;;;;;;;;;;;;;;19.83;62.60;102029.94;5045450;28;19917;-71
2022/10/04 13:00:47;;;;;;;;;;;;;;;19.86;62.22;102015.59;5046134;28;20625;-71
2022/10/04 13:03:35;;;;;;;;;;;;;;;19.64;61.48;102020.72;5048903;28;20356;-71
2022/10/04 13:06:09;;;;;;;;;;;;;;;19.65;61.37;102018.78;5043576;28;19955;-70
2022/10/04 13:08:57;;;;;;;;;;;;;;;19.74;61.87;102021.03;5018605;28;19927;-71
2022/10/04 13:11:43;;;;;;;;;;;;;;;19.72;61.52;102025.13;5039687;28;20330;-71
2022/10/04 13:14:22;;;;;;;;;;;;;;;19.60;61.69;102022.25;5042201;28;20371;-72